sensor_id;sensor_type;location;lat;lon;timestamp;P1;durP1;ratioP1;P2;durP2;ratioP2
53293;SDS011;39181;53.440;5.644;2022-09-29T00:01:22;1.30;;;1.13;;
53293;SDS011;39181;53.440;5.644;2022-09-29T00:03:47;2.15;;;1.08;;
53293;SDS011;39181;53.440;5.644;2022-09-29T00:06:14;4.93;;;1.33;;
53293;SDS011;39181;53.440;5.644;2022-09-29T00:08:41;2.95;;;1.48;;
53293;SDS011;39181;53.440;5.644;2022-09-29T00:11:07;2.47;;;1.30;;
53293;SDS011;39181;53.440;5.644;2022-09-29T00:13:35;3.33;;;1.80;;
53293;SDS011;39181;53.440;5.644;2022-09-29T00:16:01;3.05;;;1.77;;
53293;SDS011;39181;53.440;5.644;2022-09-29T00:18:28;5.45;;;1.55;;
53293;SDS011;39181;53.440;5.644;2022-09-29T00:23:31;3.63;;;1.30;;
53293;SDS011;39181;53.440;5.644;2022-09-29T00:25:59;4.47;;;1.30;;
53293;SDS011;39181;53.440;5.644;2022-09-29T00:28:26;3.53;;;1.77;;
53293;SDS011;39181;53.440;5.644;2022-09-29T00:30:52;4.55;;;2.10;;
53293;SDS011;39181;53.440;5.644;2022-09-29T00:33:17;2.47;;;1.27;;
53293;SDS011;39181;53.440;5.644;2022-09-29T00:35:43;4.65;;;1.80;;
53293;SDS011;39181;53.440;5.644;2022-09-29T00:38:08;5.00;;;1.75;;
53293;SDS011;39181;53.440;5.644;2022-09-29T00:40:34;4.45;;;1.88;;
53293;SDS011;39181;53.440;5.644;2022-09-29T00:42:59;4.13;;;1.70;;
53293;SDS011;39181;53.440;5.644;2022-09-29T00:45:25;2.72;;;1.65;;
53293;SDS011;39181;53.440;5.644;2022-09-29T00:48:07;2.83;;;1.95;;
53293;SDS011;39181;53.440;5.644;2022-09-29T00:50:42;5.28;;;1.88;;
53293;SDS011;39181;53.440;5.644;2022-09-29T00:53:11;2.67;;;1.70;;
53293;SDS011;39181;53.440;5.644;2022-09-29T00:55:43;4.05;;;1.90;;
53293;SDS011;39181;53.440;5.644;2022-09-29T00:58:38;2.95;;;1.83;;
53293;SDS011;39181;53.440;5.644;2022-09-29T01:01:04;2.78;;;1.75;;
53293;SDS011;39181;53.440;5.644;2022-09-29T01:03:32;3.00;;;2.33;;
53293;SDS011;39181;53.440;5.644;2022-09-29T01:06:02;3.28;;;1.90;;
53293;SDS011;39181;53.440;5.644;2022-09-29T01:08:41;5.80;;;2.53;;
53293;SDS011;39181;53.440;5.644;2022-09-29T01:11:11;3.78;;;2.08;;
53293;SDS011;39181;53.440;5.644;2022-09-29T01:13:38;2.28;;;1.73;;
53293;SDS011;39181;53.440;5.644;2022-09-29T01:16:05;3.03;;;1.40;;
53293;SDS011;39181;53.440;5.644;2022-09-29T01:18:31;3.40;;;1.67;;
53293;SDS011;39181;53.440;5.644;2022-09-29T01:21:45;3.70;;;0.90;;
53293;SDS011;39181;53.440;5.644;2022-09-29T01:31:52;3.03;;;1.58;;
53293;SDS011;39181;53.440;5.644;2022-09-29T01:36:55;247.05;;;5.45;;
53293;SDS011;39181;53.440;5.644;2022-09-29T01:39:42;5.93;;;0.68;;
53293;SDS011;39181;53.440;5.644;2022-09-29T01:42:29;3.05;;;0.93;;
53293;SDS011;39181;53.440;5.644;2022-09-29T01:47:39;1.35;;;1.08;;
53293;SDS011;39181;53.440;5.644;2022-09-29T01:50:12;2.20;;;1.25;;
53293;SDS011;39181;53.440;5.644;2022-09-29T01:52:43;3.40;;;1.67;;
53293;SDS011;39181;53.440;5.644;2022-09-29T01:55:19;6.00;;;2.13;;
53293;SDS011;39181;53.440;5.644;2022-09-29T01:57:55;4.15;;;2.38;;
53293;SDS011;39181;53.440;5.644;2022-09-29T02:00:24;3.80;;;2.70;;
53293;SDS011;39181;53.440;5.644;2022-09-29T02:05:33;6.47;;;2.90;;
53293;SDS011;39181;53.440;5.644;2022-09-29T02:08:09;5.53;;;2.67;;
53293;SDS011;39181;53.440;5.644;2022-09-29T02:11:09;8.48;;;3.13;;
53293;SDS011;39181;53.440;5.644;2022-09-29T02:13:58;4.82;;;3.50;;
53293;SDS011;39181;53.440;5.644;2022-09-29T02:16:30;4.53;;;3.15;;
53293;SDS011;39181;53.440;5.644;2022-09-29T02:21:39;7.03;;;4.45;;
53293;SDS011;39181;53.440;5.644;2022-09-29T02:24:05;8.07;;;4.13;;
53293;SDS011;39181;53.440;5.644;2022-09-29T02:26:31;8.75;;;4.78;;
53293;SDS011;39181;53.440;5.644;2022-09-29T02:28:59;6.70;;;4.63;;
53293;SDS011;39181;53.440;5.644;2022-09-29T02:31:27;9.43;;;5.18;;
53293;SDS011;39181;53.440;5.644;2022-09-29T02:33:52;7.70;;;5.07;;
53293;SDS011;39181;53.440;5.644;2022-09-29T02:36:23;9.30;;;5.57;;
53293;SDS011;39181;53.440;5.644;2022-09-29T02:39:02;7.00;;;5.45;;
53293;SDS011;39181;53.440;5.644;2022-09-29T02:42:20;7.18;;;5.00;;
53293;SDS011;39181;53.440;5.644;2022-09-29T02:50:16;7.78;;;5.20;;
53293;SDS011;39181;53.440;5.644;2022-09-29T02:53:04;9.88;;;5.60;;
53293;SDS011;39181;53.440;5.644;2022-09-29T02:55:53;9.27;;;6.20;;
53293;SDS011;39181;53.440;5.644;2022-09-29T03:01:16;11.30;;;6.13;;
53293;SDS011;39181;53.440;5.644;2022-09-29T03:03:42;11.73;;;6.60;;
53293;SDS011;39181;53.440;5.644;2022-09-29T03:06:08;9.57;;;5.25;;
53293;SDS011;39181;53.440;5.644;2022-09-29T03:08:34;7.60;;;5.07;;
53293;SDS011;39181;53.440;5.644;2022-09-29T03:11:00;10.02;;;4.40;;
53293;SDS011;39181;53.440;5.644;2022-09-29T03:13:26;6.22;;;4.55;;
53293;SDS011;39181;53.440;5.644;2022-09-29T03:15:51;8.38;;;4.00;;
53293;SDS011;39181;53.440;5.644;2022-09-29T03:18:17;5.05;;;4.18;;
53293;SDS011;39181;53.440;5.644;2022-09-29T03:20:43;6.53;;;3.90;;
53293;SDS011;39181;53.440;5.644;2022-09-29T03:23:09;8.52;;;3.67;;
53293;SDS011;39181;53.440;5.644;2022-09-29T03:25:34;5.88;;;4.20;;
53293;SDS011;39181;53.440;5.644;2022-09-29T03:28:00;4.95;;;3.88;;
53293;SDS011;39181;53.440;5.644;2022-09-29T03:30:26;5.40;;;3.97;;
53293;SDS011;39181;53.440;5.644;2022-09-29T03:32:51;4.38;;;3.33;;
53293;SDS011;39181;53.440;5.644;2022-09-29T03:35:17;7.35;;;4.45;;
53293;SDS011;39181;53.440;5.644;2022-09-29T03:37:43;8.02;;;3.75;;
53293;SDS011;39181;53.440;5.644;2022-09-29T03:40:09;5.25;;;3.35;;
53293;SDS011;39181;53.440;5.644;2022-09-29T03:42:35;6.18;;;3.17;;
53293;SDS011;39181;53.440;5.644;2022-09-29T03:45:00;6.65;;;3.72;;
53293;SDS011;39181;53.440;5.644;2022-09-29T03:47:26;8.50;;;3.83;;
53293;SDS011;39181;53.440;5.644;2022-09-29T03:49:51;8.45;;;4.68;;
53293;SDS011;39181;53.440;5.644;2022-09-29T03:52:17;6.45;;;4.38;;
53293;SDS011;39181;53.440;5.644;2022-09-29T03:54:43;8.85;;;4.75;;
53293;SDS011;39181;53.440;5.644;2022-09-29T03:57:08;8.10;;;4.60;;
53293;SDS011;39181;53.440;5.644;2022-09-29T03:59:34;9.18;;;4.93;;
53293;SDS011;39181;53.440;5.644;2022-09-29T04:01:59;7.45;;;5.03;;
53293;SDS011;39181;53.440;5.644;2022-09-29T04:04:25;8.70;;;5.30;;
53293;SDS011;39181;53.440;5.644;2022-09-29T04:06:51;6.35;;;5.43;;
53293;SDS011;39181;53.440;5.644;2022-09-29T04:09:16;7.55;;;5.63;;
53293;SDS011;39181;53.440;5.644;2022-09-29T04:11:42;7.45;;;5.05;;
53293;SDS011;39181;53.440;5.644;2022-09-29T04:14:07;5.93;;;4.60;;
53293;SDS011;39181;53.440;5.644;2022-09-29T04:16:33;7.60;;;5.68;;
53293;SDS011;39181;53.440;5.644;2022-09-29T04:18:58;12.38;;;5.50;;
53293;SDS011;39181;53.440;5.644;2022-09-29T04:21:24;10.48;;;5.82;;
53293;SDS011;39181;53.440;5.644;2022-09-29T04:23:49;8.65;;;5.68;;
53293;SDS011;39181;53.440;5.644;2022-09-29T04:26:15;5.75;;;4.75;;
53293;SDS011;39181;53.440;5.644;2022-09-29T04:28:40;7.00;;;5.15;;
53293;SDS011;39181;53.440;5.644;2022-09-29T04:31:06;7.70;;;5.40;;
53293;SDS011;39181;53.440;5.644;2022-09-29T04:33:32;8.02;;;5.80;;
53293;SDS011;39181;53.440;5.644;2022-09-29T04:35:58;7.35;;;4.88;;
53293;SDS011;39181;53.440;5.644;2022-09-29T04:38:24;6.88;;;5.35;;
53293;SDS011;39181;53.440;5.644;2022-09-29T04:40:50;8.77;;;5.50;;
53293;SDS011;39181;53.440;5.644;2022-09-29T04:43:16;7.43;;;5.18;;
53293;SDS011;39181;53.440;5.644;2022-09-29T04:45:42;8.40;;;4.72;;
53293;SDS011;39181;53.440;5.644;2022-09-29T04:48:07;8.35;;;5.57;;
53293;SDS011;39181;53.440;5.644;2022-09-29T04:50:36;8.07;;;5.50;;
53293;SDS011;39181;53.440;5.644;2022-09-29T04:53:02;7.43;;;5.00;;
53293;SDS011;39181;53.440;5.644;2022-09-29T04:55:27;7.60;;;4.93;;
53293;SDS011;39181;53.440;5.644;2022-09-29T04:57:53;9.05;;;6.40;;
53293;SDS011;39181;53.440;5.644;2022-09-29T05:00:19;13.10;;;6.45;;
53293;SDS011;39181;53.440;5.644;2022-09-29T05:02:45;9.13;;;6.32;;
53293;SDS011;39181;53.440;5.644;2022-09-29T05:05:11;11.18;;;6.85;;
53293;SDS011;39181;53.440;5.644;2022-09-29T05:07:37;10.07;;;5.20;;
53293;SDS011;39181;53.440;5.644;2022-09-29T05:10:04;10.57;;;5.68;;
53293;SDS011;39181;53.440;5.644;2022-09-29T05:12:30;8.32;;;6.20;;
53293;SDS011;39181;53.440;5.644;2022-09-29T05:14:56;11.07;;;6.18;;
53293;SDS011;39181;53.440;5.644;2022-09-29T05:17:22;10.48;;;6.65;;
53293;SDS011;39181;53.440;5.644;2022-09-29T05:19:47;10.60;;;6.25;;
53293;SDS011;39181;53.440;5.644;2022-09-29T05:22:13;12.65;;;7.32;;
53293;SDS011;39181;53.440;5.644;2022-09-29T05:24:38;10.90;;;6.13;;
53293;SDS011;39181;53.440;5.644;2022-09-29T05:27:04;13.50;;;6.93;;
53293;SDS011;39181;53.440;5.644;2022-09-29T05:29:30;15.18;;;7.70;;
53293;SDS011;39181;53.440;5.644;2022-09-29T05:31:55;14.32;;;6.78;;
53293;SDS011;39181;53.440;5.644;2022-09-29T05:34:21;13.18;;;7.00;;
53293;SDS011;39181;53.440;5.644;2022-09-29T05:36:47;12.77;;;6.82;;
53293;SDS011;39181;53.440;5.644;2022-09-29T05:39:12;11.40;;;6.38;;
53293;SDS011;39181;53.440;5.644;2022-09-29T05:41:38;15.32;;;8.13;;
53293;SDS011;39181;53.440;5.644;2022-09-29T05:44:04;14.35;;;7.55;;
53293;SDS011;39181;53.440;5.644;2022-09-29T05:46:29;14.73;;;7.43;;
53293;SDS011;39181;53.440;5.644;2022-09-29T05:48:55;10.98;;;6.50;;
53293;SDS011;39181;53.440;5.644;2022-09-29T05:51:22;11.73;;;7.05;;
53293;SDS011;39181;53.440;5.644;2022-09-29T05:53:51;14.38;;;7.28;;
53293;SDS011;39181;53.440;5.644;2022-09-29T05:56:18;13.23;;;6.65;;
53293;SDS011;39181;53.440;5.644;2022-09-29T05:58:45;18.23;;;6.95;;
53293;SDS011;39181;53.440;5.644;2022-09-29T06:01:12;11.82;;;7.97;;
53293;SDS011;39181;53.440;5.644;2022-09-29T06:03:42;12.70;;;6.70;;
53293;SDS011;39181;53.440;5.644;2022-09-29T06:06:08;13.43;;;6.90;;
53293;SDS011;39181;53.440;5.644;2022-09-29T06:08:42;16.48;;;8.13;;
53293;SDS011;39181;53.440;5.644;2022-09-29T06:11:12;14.10;;;7.82;;
53293;SDS011;39181;53.440;5.644;2022-09-29T06:13:40;15.55;;;7.75;;
53293;SDS011;39181;53.440;5.644;2022-09-29T06:16:11;12.45;;;7.50;;
53293;SDS011;39181;53.440;5.644;2022-09-29T06:18:37;15.70;;;8.50;;
53293;SDS011;39181;53.440;5.644;2022-09-29T06:21:07;16.50;;;8.65;;
53293;SDS011;39181;53.440;5.644;2022-09-29T06:23:37;18.40;;;9.45;;
53293;SDS011;39181;53.440;5.644;2022-09-29T06:26:04;16.80;;;9.32;;
53293;SDS011;39181;53.440;5.644;2022-09-29T06:28:32;15.30;;;9.93;;
53293;SDS011;39181;53.440;5.644;2022-09-29T06:30:59;19.45;;;9.73;;
53293;SDS011;39181;53.440;5.644;2022-09-29T06:33:30;21.80;;;9.27;;
53293;SDS011;39181;53.440;5.644;2022-09-29T06:35:56;22.30;;;11.20;;
53293;SDS011;39181;53.440;5.644;2022-09-29T06:38:42;28.73;;;11.32;;
53293;SDS011;39181;53.440;5.644;2022-09-29T06:41:07;21.17;;;10.68;;
53293;SDS011;39181;53.440;5.644;2022-09-29T06:43:33;23.10;;;10.40;;
53293;SDS011;39181;53.440;5.644;2022-09-29T06:45:59;23.60;;;10.90;;
53293;SDS011;39181;53.440;5.644;2022-09-29T06:48:25;23.95;;;10.98;;
53293;SDS011;39181;53.440;5.644;2022-09-29T06:50:53;23.40;;;10.75;;
53293;SDS011;39181;53.440;5.644;2022-09-29T06:53:18;24.75;;;10.63;;
53293;SDS011;39181;53.440;5.644;2022-09-29T06:55:50;18.83;;;10.05;;
53293;SDS011;39181;53.440;5.644;2022-09-29T06:58:20;17.92;;;10.55;;
53293;SDS011;39181;53.440;5.644;2022-09-29T07:00:48;19.45;;;9.93;;
53293;SDS011;39181;53.440;5.644;2022-09-29T07:03:14;16.15;;;9.38;;
53293;SDS011;39181;53.440;5.644;2022-09-29T07:05:40;18.40;;;10.00;;
53293;SDS011;39181;53.440;5.644;2022-09-29T07:08:06;16.45;;;9.38;;
53293;SDS011;39181;53.440;5.644;2022-09-29T07:10:31;16.58;;;9.23;;
53293;SDS011;39181;53.440;5.644;2022-09-29T07:12:57;23.50;;;10.63;;
53293;SDS011;39181;53.440;5.644;2022-09-29T07:15:23;18.20;;;9.95;;
53293;SDS011;39181;53.440;5.644;2022-09-29T07:17:58;13.38;;;7.32;;
53293;SDS011;39181;53.440;5.644;2022-09-29T07:20:26;14.27;;;7.93;;
53293;SDS011;39181;53.440;5.644;2022-09-29T07:22:52;16.40;;;7.30;;
53293;SDS011;39181;53.440;5.644;2022-09-29T07:25:18;14.02;;;7.93;;
53293;SDS011;39181;53.440;5.644;2022-09-29T07:27:44;17.27;;;7.95;;
53293;SDS011;39181;53.440;5.644;2022-09-29T07:30:12;14.07;;;7.00;;
53293;SDS011;39181;53.440;5.644;2022-09-29T07:32:38;16.17;;;8.85;;
53293;SDS011;39181;53.440;5.644;2022-09-29T07:35:04;13.73;;;7.60;;
53293;SDS011;39181;53.440;5.644;2022-09-29T07:37:30;15.38;;;8.20;;
53293;SDS011;39181;53.440;5.644;2022-09-29T07:39:56;13.85;;;6.95;;
53293;SDS011;39181;53.440;5.644;2022-09-29T07:42:22;9.10;;;5.50;;
53293;SDS011;39181;53.440;5.644;2022-09-29T07:44:48;11.57;;;5.55;;
53293;SDS011;39181;53.440;5.644;2022-09-29T07:47:13;9.55;;;4.65;;
53293;SDS011;39181;53.440;5.644;2022-09-29T07:49:42;7.93;;;4.82;;
53293;SDS011;39181;53.440;5.644;2022-09-29T07:52:07;7.03;;;4.30;;
53293;SDS011;39181;53.440;5.644;2022-09-29T07:54:33;8.57;;;3.90;;
53293;SDS011;39181;53.440;5.644;2022-09-29T07:56:59;8.68;;;4.05;;
53293;SDS011;39181;53.440;5.644;2022-09-29T07:59:27;8.85;;;4.43;;
53293;SDS011;39181;53.440;5.644;2022-09-29T08:01:53;8.10;;;4.10;;
53293;SDS011;39181;53.440;5.644;2022-09-29T08:04:19;12.57;;;4.65;;
53293;SDS011;39181;53.440;5.644;2022-09-29T08:06:45;8.02;;;4.03;;
53293;SDS011;39181;53.440;5.644;2022-09-29T08:09:11;9.40;;;4.72;;
53293;SDS011;39181;53.440;5.644;2022-09-29T08:11:38;11.82;;;4.90;;
53293;SDS011;39181;53.440;5.644;2022-09-29T08:14:05;8.15;;;4.85;;
53293;SDS011;39181;53.440;5.644;2022-09-29T08:16:31;7.53;;;4.55;;
53293;SDS011;39181;53.440;5.644;2022-09-29T08:18:58;6.53;;;4.30;;
53293;SDS011;39181;53.440;5.644;2022-09-29T08:21:25;7.80;;;3.80;;
53293;SDS011;39181;53.440;5.644;2022-09-29T08:23:51;9.55;;;3.50;;
53293;SDS011;39181;53.440;5.644;2022-09-29T08:26:18;6.72;;;3.08;;
53293;SDS011;39181;53.440;5.644;2022-09-29T08:28:45;11.38;;;3.42;;
53293;SDS011;39181;53.440;5.644;2022-09-29T08:31:12;10.07;;;4.05;;
53293;SDS011;39181;53.440;5.644;2022-09-29T08:33:49;5.88;;;3.90;;
53293;SDS011;39181;53.440;5.644;2022-09-29T08:36:16;9.07;;;4.20;;
53293;SDS011;39181;53.440;5.644;2022-09-29T08:38:44;7.40;;;4.00;;
53293;SDS011;39181;53.440;5.644;2022-09-29T08:41:39;5.50;;;3.67;;
53293;SDS011;39181;53.440;5.644;2022-09-29T08:44:09;5.68;;;3.45;;
53293;SDS011;39181;53.440;5.644;2022-09-29T08:46:50;8.80;;;3.08;;
53293;SDS011;39181;53.440;5.644;2022-09-29T08:49:21;7.53;;;3.90;;
53293;SDS011;39181;53.440;5.644;2022-09-29T08:52:05;7.57;;;3.70;;
53293;SDS011;39181;53.440;5.644;2022-09-29T08:54:37;6.32;;;3.90;;
53293;SDS011;39181;53.440;5.644;2022-09-29T08:57:05;7.07;;;4.03;;
53293;SDS011;39181;53.440;5.644;2022-09-29T08:59:39;7.20;;;3.75;;
53293;SDS011;39181;53.440;5.644;2022-09-29T09:05:11;3.03;;;2.60;;
53293;SDS011;39181;53.440;5.644;2022-09-29T09:08:02;3.97;;;3.22;;
53293;SDS011;39181;53.440;5.644;2022-09-29T09:16:01;8.90;;;2.65;;
53293;SDS011;39181;53.440;5.644;2022-09-29T09:21:33;3.45;;;2.28;;
53293;SDS011;39181;53.440;5.644;2022-09-29T09:26:38;4.75;;;2.30;;
53293;SDS011;39181;53.440;5.644;2022-09-29T09:43:31;4.15;;;1.05;;
53293;SDS011;39181;53.440;5.644;2022-09-29T09:45:52;4.57;;;1.10;;
53293;SDS011;39181;53.440;5.644;2022-09-29T09:48:29;3.05;;;1.00;;
53293;SDS011;39181;53.440;5.644;2022-09-29T09:51:00;6.70;;;0.90;;
53293;SDS011;39181;53.440;5.644;2022-09-29T09:53:39;2.72;;;1.00;;
53293;SDS011;39181;53.440;5.644;2022-09-29T09:56:15;3.42;;;0.90;;
53293;SDS011;39181;53.440;5.644;2022-09-29T10:01:44;1.80;;;0.70;;
53293;SDS011;39181;53.440;5.644;2022-09-29T10:04:10;1.27;;;0.70;;
53293;SDS011;39181;53.440;5.644;2022-09-29T10:06:37;4.32;;;0.57;;
53293;SDS011;39181;53.440;5.644;2022-09-29T10:09:03;2.72;;;0.80;;
53293;SDS011;39181;53.440;5.644;2022-09-29T10:11:29;4.40;;;0.50;;
53293;SDS011;39181;53.440;5.644;2022-09-29T10:16:56;2.72;;;0.55;;
53293;SDS011;39181;53.440;5.644;2022-09-29T10:22:18;1.50;;;0.60;;
53293;SDS011;39181;53.440;5.644;2022-09-29T10:24:44;3.47;;;0.60;;
53293;SDS011;39181;53.440;5.644;2022-09-29T10:27:10;1.85;;;0.30;;
53293;SDS011;39181;53.440;5.644;2022-09-29T10:29:43;3.35;;;0.30;;
53293;SDS011;39181;53.440;5.644;2022-09-29T10:34:45;1.90;;;0.40;;
53293;SDS011;39181;53.440;5.644;2022-09-29T10:39:50;1.55;;;0.47;;
53293;SDS011;39181;53.440;5.644;2022-09-29T10:42:39;2.33;;;0.20;;
53293;SDS011;39181;53.440;5.644;2022-09-29T10:47:31;2.60;;;0.30;;
53293;SDS011;39181;53.440;5.644;2022-09-29T10:52:50;3.38;;;0.30;;
53293;SDS011;39181;53.440;5.644;2022-09-29T10:55:28;0.75;;;0.30;;
53293;SDS011;39181;53.440;5.644;2022-09-29T10:58:26;2.90;;;0.40;;
53293;SDS011;39181;53.440;5.644;2022-09-29T11:01:05;1.00;;;0.28;;
53293;SDS011;39181;53.440;5.644;2022-09-29T11:03:34;0.73;;;0.28;;
53293;SDS011;39181;53.440;5.644;2022-09-29T11:06:08;1.13;;;0.20;;
53293;SDS011;39181;53.440;5.644;2022-09-29T11:11:30;3.33;;;0.30;;
53293;SDS011;39181;53.440;5.644;2022-09-29T11:14:01;1.42;;;0.38;;
53293;SDS011;39181;53.440;5.644;2022-09-29T11:16:27;1.38;;;0.30;;
53293;SDS011;39181;53.440;5.644;2022-09-29T11:19:07;2.55;;;0.40;;
53293;SDS011;39181;53.440;5.644;2022-09-29T11:26:37;0.40;;;0.20;;
53293;SDS011;39181;53.440;5.644;2022-09-29T11:48:37;1.02;;;0.30;;
53293;SDS011;39181;53.440;5.644;2022-09-29T11:54:21;1.10;;;0.30;;
53293;SDS011;39181;53.440;5.644;2022-09-29T11:59:29;0.88;;;0.30;;
53293;SDS011;39181;53.440;5.644;2022-09-29T12:04:58;1.02;;;0.38;;
53293;SDS011;39181;53.440;5.644;2022-09-29T12:10:20;2.90;;;0.57;;
53293;SDS011;39181;53.440;5.644;2022-09-29T12:15:49;2.58;;;0.30;;
53293;SDS011;39181;53.440;5.644;2022-09-29T12:18:38;1.70;;;0.32;;
53293;SDS011;39181;53.440;5.644;2022-09-29T12:21:10;3.30;;;0.30;;
53293;SDS011;39181;53.440;5.644;2022-09-29T12:23:38;1.60;;;0.20;;
53293;SDS011;39181;53.440;5.644;2022-09-29T12:26:12;2.05;;;0.30;;
53293;SDS011;39181;53.440;5.644;2022-09-29T12:31:46;1.95;;;0.28;;
53293;SDS011;39181;53.440;5.644;2022-09-29T12:36:48;0.60;;;0.10;;
53293;SDS011;39181;53.440;5.644;2022-09-29T12:42:21;1.15;;;0.30;;
53293;SDS011;39181;53.440;5.644;2022-09-29T12:45:11;0.93;;;0.20;;
53293;SDS011;39181;53.440;5.644;2022-09-29T12:48:06;3.15;;;0.20;;
53293;SDS011;39181;53.440;5.644;2022-09-29T12:51:00;1.90;;;0.20;;
53293;SDS011;39181;53.440;5.644;2022-09-29T12:53:34;0.52;;;0.15;;
53293;SDS011;39181;53.440;5.644;2022-09-29T12:56:17;1.02;;;0.10;;
53293;SDS011;39181;53.440;5.644;2022-09-29T13:12:05;0.73;;;0.13;;
53293;SDS011;39181;53.440;5.644;2022-09-29T13:14:44;0.95;;;0.22;;
53293;SDS011;39181;53.440;5.644;2022-09-29T13:17:26;1.35;;;0.20;;
53293;SDS011;39181;53.440;5.644;2022-09-29T13:20:41;1.70;;;0.20;;
53293;SDS011;39181;53.440;5.644;2022-09-29T13:26:16;0.45;;;0.17;;
53293;SDS011;39181;53.440;5.644;2022-09-29T13:28:50;4.30;;;0.20;;
53293;SDS011;39181;53.440;5.644;2022-09-29T13:31:21;0.50;;;0.20;;
53293;SDS011;39181;53.440;5.644;2022-09-29T13:33:52;0.50;;;0.28;;
53293;SDS011;39181;53.440;5.644;2022-09-29T13:36:20;0.95;;;0.32;;
53293;SDS011;39181;53.440;5.644;2022-09-29T13:38:51;0.57;;;0.20;;
53293;SDS011;39181;53.440;5.644;2022-09-29T13:46:35;1.90;;;0.20;;
53293;SDS011;39181;53.440;5.644;2022-09-29T13:51:42;3.38;;;0.32;;
53293;SDS011;39181;53.440;5.644;2022-09-29T13:54:31;1.13;;;0.30;;
53293;SDS011;39181;53.440;5.644;2022-09-29T13:59:37;0.63;;;0.00;;
53293;SDS011;39181;53.440;5.644;2022-09-29T14:13:10;2.28;;;0.17;;
53293;SDS011;39181;53.440;5.644;2022-09-29T14:15:41;0.47;;;0.10;;
53293;SDS011;39181;53.440;5.644;2022-09-29T14:18:29;0.65;;;0.08;;
53293;SDS011;39181;53.440;5.644;2022-09-29T14:21:01;0.82;;;0.10;;
53293;SDS011;39181;53.440;5.644;2022-09-29T14:29:13;0.98;;;0.10;;
53293;SDS011;39181;53.440;5.644;2022-09-29T14:31:52;1.65;;;0.10;;
53293;SDS011;39181;53.440;5.644;2022-09-29T14:34:21;0.68;;;0.50;;
53293;SDS011;39181;53.440;5.644;2022-09-29T14:36:50;0.85;;;0.20;;
53293;SDS011;39181;53.440;5.644;2022-09-29T14:39:18;0.55;;;0.20;;
53293;SDS011;39181;53.440;5.644;2022-09-29T14:41:45;0.20;;;0.10;;
53293;SDS011;39181;53.440;5.644;2022-09-29T14:56:28;0.45;;;0.20;;
53293;SDS011;39181;53.440;5.644;2022-09-29T15:04:45;7.25;;;2.65;;
53293;SDS011;39181;53.440;5.644;2022-09-29T15:07:13;5.13;;;1.58;;
53293;SDS011;39181;53.440;5.644;2022-09-29T15:09:50;6.30;;;3.70;;
53293;SDS011;39181;53.440;5.644;2022-09-29T15:12:24;2.50;;;1.80;;
53293;SDS011;39181;53.440;5.644;2022-09-29T15:14:52;3.00;;;0.80;;
53293;SDS011;39181;53.440;5.644;2022-09-29T15:26:31;1.33;;;0.30;;
53293;SDS011;39181;53.440;5.644;2022-09-29T15:28:58;1.90;;;0.30;;
53293;SDS011;39181;53.440;5.644;2022-09-29T15:31:30;3.35;;;0.43;;
53293;SDS011;39181;53.440;5.644;2022-09-29T15:33:58;1.00;;;0.22;;
53293;SDS011;39181;53.440;5.644;2022-09-29T15:36:26;4.15;;;0.20;;
53293;SDS011;39181;53.440;5.644;2022-09-29T15:39:06;2.20;;;0.40;;
53293;SDS011;39181;53.440;5.644;2022-09-29T15:41:58;0.75;;;0.20;;
53293;SDS011;39181;53.440;5.644;2022-09-29T15:44:48;0.43;;;0.30;;
53293;SDS011;39181;53.440;5.644;2022-09-29T15:47:20;2.53;;;0.50;;
53293;SDS011;39181;53.440;5.644;2022-09-29T15:49:48;1.92;;;0.20;;
53293;SDS011;39181;53.440;5.644;2022-09-29T15:52:15;3.38;;;0.45;;
53293;SDS011;39181;53.440;5.644;2022-09-29T15:54:44;1.85;;;0.30;;
53293;SDS011;39181;53.440;5.644;2022-09-29T16:02:50;1.27;;;0.30;;
53293;SDS011;39181;53.440;5.644;2022-09-29T16:05:32;0.50;;;0.32;;
53293;SDS011;39181;53.440;5.644;2022-09-29T16:08:02;4.00;;;0.90;;
53293;SDS011;39181;53.440;5.644;2022-09-29T16:10:42;3.25;;;1.20;;
53293;SDS011;39181;53.440;5.644;2022-09-29T16:13:22;1.83;;;0.30;;
53293;SDS011;39181;53.440;5.644;2022-09-29T16:15:53;0.93;;;0.38;;
53293;SDS011;39181;53.440;5.644;2022-09-29T16:18:23;1.77;;;0.20;;
53293;SDS011;39181;53.440;5.644;2022-09-29T16:21:05;1.83;;;0.17;;
53293;SDS011;39181;53.440;5.644;2022-09-29T16:28:40;5.22;;;0.25;;
53293;SDS011;39181;53.440;5.644;2022-09-29T16:31:25;2.20;;;0.30;;
53293;SDS011;39181;53.440;5.644;2022-09-29T16:33:53;0.50;;;0.30;;
53293;SDS011;39181;53.440;5.644;2022-09-29T16:36:21;1.38;;;0.30;;
53293;SDS011;39181;53.440;5.644;2022-09-29T16:38:49;3.55;;;0.30;;
53293;SDS011;39181;53.440;5.644;2022-09-29T16:41:28;1.55;;;0.50;;
53293;SDS011;39181;53.440;5.644;2022-09-29T16:49:24;2.08;;;0.38;;
53293;SDS011;39181;53.440;5.644;2022-09-29T16:51:56;1.03;;;0.30;;
53293;SDS011;39181;53.440;5.644;2022-09-29T16:54:26;2.10;;;0.40;;
53293;SDS011;39181;53.440;5.644;2022-09-29T17:00:01;2.92;;;0.30;;
53293;SDS011;39181;53.440;5.644;2022-09-29T17:02:35;0.88;;;0.40;;
53293;SDS011;39181;53.440;5.644;2022-09-29T17:05:00;4.15;;;0.20;;
53293;SDS011;39181;53.440;5.644;2022-09-29T17:07:29;7.38;;;0.32;;
53293;SDS011;39181;53.440;5.644;2022-09-29T17:09:57;4.32;;;0.40;;
53293;SDS011;39181;53.440;5.644;2022-09-29T17:12:24;3.35;;;0.40;;
53293;SDS011;39181;53.440;5.644;2022-09-29T17:14:52;8.20;;;0.60;;
53293;SDS011;39181;53.440;5.644;2022-09-29T17:17:24;3.03;;;0.43;;
53293;SDS011;39181;53.440;5.644;2022-09-29T17:19:51;3.42;;;0.47;;
53293;SDS011;39181;53.440;5.644;2022-09-29T17:22:30;2.35;;;0.50;;
53293;SDS011;39181;53.440;5.644;2022-09-29T17:24:58;2.78;;;0.40;;
53293;SDS011;39181;53.440;5.644;2022-09-29T17:27:24;4.95;;;0.47;;
53293;SDS011;39181;53.440;5.644;2022-09-29T17:30:10;4.72;;;1.20;;
53293;SDS011;39181;53.440;5.644;2022-09-29T17:32:41;5.82;;;0.55;;
53293;SDS011;39181;53.440;5.644;2022-09-29T17:35:10;3.63;;;0.50;;
53293;SDS011;39181;53.440;5.644;2022-09-29T17:37:38;5.78;;;0.50;;
53293;SDS011;39181;53.440;5.644;2022-09-29T17:42:41;5.15;;;0.30;;
53293;SDS011;39181;53.440;5.644;2022-09-29T17:45:09;4.90;;;0.30;;
53293;SDS011;39181;53.440;5.644;2022-09-29T17:47:34;2.60;;;1.00;;
53293;SDS011;39181;53.440;5.644;2022-09-29T17:50:09;1.50;;;0.70;;
53293;SDS011;39181;53.440;5.644;2022-09-29T17:52:44;4.53;;;0.80;;
53293;SDS011;39181;53.440;5.644;2022-09-29T17:55:10;6.85;;;1.17;;
53293;SDS011;39181;53.440;5.644;2022-09-29T17:57:36;2.83;;;0.95;;
53293;SDS011;39181;53.440;5.644;2022-09-29T18:00:02;7.85;;;1.20;;
53293;SDS011;39181;53.440;5.644;2022-09-29T18:02:38;8.38;;;1.65;;
53293;SDS011;39181;53.440;5.644;2022-09-29T18:05:04;8.75;;;1.63;;
53293;SDS011;39181;53.440;5.644;2022-09-29T18:07:29;9.38;;;2.40;;
53293;SDS011;39181;53.440;5.644;2022-09-29T18:09:55;7.53;;;3.33;;
53293;SDS011;39181;53.440;5.644;2022-09-29T18:12:20;8.40;;;1.67;;
53293;SDS011;39181;53.440;5.644;2022-09-29T18:14:46;6.05;;;1.23;;
53293;SDS011;39181;53.440;5.644;2022-09-29T18:17:12;9.10;;;0.88;;
53293;SDS011;39181;53.440;5.644;2022-09-29T18:19:37;4.15;;;0.98;;
53293;SDS011;39181;53.440;5.644;2022-09-29T18:22:04;6.93;;;0.60;;
53293;SDS011;39181;53.440;5.644;2022-09-29T18:24:31;5.40;;;1.10;;
53293;SDS011;39181;53.440;5.644;2022-09-29T18:26:57;3.70;;;0.50;;
53293;SDS011;39181;53.440;5.644;2022-09-29T18:29:23;2.88;;;0.60;;
53293;SDS011;39181;53.440;5.644;2022-09-29T18:31:49;1.77;;;0.50;;
53293;SDS011;39181;53.440;5.644;2022-09-29T18:34:16;4.38;;;0.70;;
53293;SDS011;39181;53.440;5.644;2022-09-29T18:36:44;3.33;;;0.73;;
53293;SDS011;39181;53.440;5.644;2022-09-29T18:39:10;3.35;;;0.65;;
53293;SDS011;39181;53.440;5.644;2022-09-29T18:41:36;4.82;;;0.50;;
53293;SDS011;39181;53.440;5.644;2022-09-29T18:44:11;2.30;;;0.55;;